createdAt,value
2022-10-19T00:01:43.414Z,3.40
2022-10-19T00:04:10.187Z,4.13
2022-10-19T00:06:37.518Z,3.67
2022-10-19T00:09:12.890Z,3.80
2022-10-19T00:11:42.891Z,3.80
2022-10-19T00:14:14.264Z,4.00
2022-10-19T00:16:42.824Z,4.00
2022-10-19T00:19:15.183Z,3.80
2022-10-19T00:21:42.437Z,3.60
2022-10-19T00:24:09.449Z,3.90
2022-10-19T00:26:36.661Z,4.00
2022-10-19T00:29:05.502Z,4.25
2022-10-19T00:31:32.562Z,3.90
2022-10-19T00:33:59.644Z,3.90
2022-10-19T00:36:29.921Z,4.57
2022-10-19T00:38:57.658Z,3.88
2022-10-19T00:41:28.018Z,4.10
2022-10-19T00:44:05.882Z,4.20
2022-10-19T00:46:36.106Z,4.10
2022-10-19T00:49:11.089Z,4.30
2022-10-19T00:51:42.105Z,3.50
2022-10-19T00:54:09.866Z,3.50
2022-10-19T00:56:41.054Z,3.83
2022-10-19T00:59:09.501Z,4.00
2022-10-19T01:01:36.556Z,3.70
2022-10-19T01:04:04.658Z,3.63
2022-10-19T01:06:32.070Z,4.00
2022-10-19T01:08:58.833Z,3.30
2022-10-19T01:11:34.267Z,4.03
2022-10-19T01:14:14.466Z,3.58
2022-10-19T01:17:06.988Z,3.90
2022-10-19T01:20:04.274Z,3.90
2022-10-19T01:22:31.010Z,3.45
2022-10-19T01:25:03.793Z,3.60
2022-10-19T01:27:30.633Z,3.40
2022-10-19T01:30:02.507Z,3.40
2022-10-19T01:32:58.801Z,3.60
2022-10-19T01:36:02.438Z,3.50
2022-10-19T01:38:37.357Z,3.67
2022-10-19T01:41:10.052Z,3.63
2022-10-19T01:43:54.893Z,3.30
2022-10-19T01:46:32.323Z,3.40
2022-10-19T01:49:07.731Z,3.42
2022-10-19T01:51:40.168Z,3.60
2022-10-19T01:54:12.464Z,3.72
2022-10-19T01:56:42.220Z,3.60
2022-10-19T01:59:11.471Z,3.40
2022-10-19T02:01:43.892Z,3.72
2022-10-19T02:04:13.367Z,3.78
2022-10-19T02:06:40.784Z,3.13
2022-10-19T02:09:07.981Z,3.90
2022-10-19T02:11:37.254Z,5.50
2022-10-19T02:14:13.125Z,5.20
2022-10-19T02:16:50.121Z,5.43
2022-10-19T02:19:18.255Z,7.45
2022-10-19T02:21:45.322Z,7.97
2022-10-19T02:24:12.150Z,8.50
2022-10-19T02:26:40.172Z,9.05
2022-10-19T02:29:07.989Z,9.05
2022-10-19T02:31:35.128Z,10.48
2022-10-19T02:34:02.141Z,9.93
2022-10-19T02:36:29.112Z,11.20
2022-10-19T02:38:55.845Z,9.27
2022-10-19T02:41:37.209Z,9.45
2022-10-19T02:44:12.312Z,8.77
2022-10-19T02:46:46.049Z,9.20
2022-10-19T02:49:13.745Z,9.38
2022-10-19T02:51:57.629Z,8.95
2022-10-19T02:54:25.045Z,9.70
2022-10-19T02:56:52.157Z,8.80
2022-10-19T02:59:18.978Z,9.10
2022-10-19T03:01:45.863Z,8.68
2022-10-19T03:04:12.632Z,8.45
2022-10-19T03:06:39.341Z,8.15
2022-10-19T03:09:06.269Z,8.40
2022-10-19T03:11:33.866Z,8.23
2022-10-19T03:14:00.599Z,8.70
2022-10-19T03:16:27.331Z,8.10
2022-10-19T03:18:54.773Z,8.52
2022-10-19T03:21:21.608Z,8.32
2022-10-19T03:23:48.341Z,7.80
2022-10-19T03:26:16.258Z,7.60
2022-10-19T03:28:43.139Z,7.30
2022-10-19T03:31:10.033Z,7.40
2022-10-19T03:33:36.929Z,7.70
2022-10-19T03:36:24.340Z,8.10
2022-10-19T03:38:52.865Z,7.55
2022-10-19T03:41:21.212Z,7.75
2022-10-19T03:43:48.097Z,7.95
2022-10-19T03:46:15.325Z,8.07
2022-10-19T03:48:42.513Z,8.15
2022-10-19T03:51:12.561Z,7.90
2022-10-19T03:53:40.629Z,7.68
2022-10-19T03:56:18.531Z,7.90
2022-10-19T03:58:46.860Z,8.10
2022-10-19T04:01:16.619Z,9.00
2022-10-19T04:03:43.589Z,7.97
2022-10-19T04:06:19.605Z,8.50
2022-10-19T04:08:49.960Z,9.10
2022-10-19T04:11:18.976Z,7.93
2022-10-19T04:13:57.631Z,8.23
2022-10-19T04:16:26.167Z,7.90
2022-10-19T04:18:52.985Z,8.43
2022-10-19T04:21:21.811Z,8.30
2022-10-19T04:23:49.589Z,8.27
2022-10-19T04:26:16.961Z,8.13
2022-10-19T04:28:43.747Z,8.20
2022-10-19T04:31:11.553Z,8.13
2022-10-19T04:33:39.516Z,7.80
2022-10-19T04:36:08.915Z,8.43
2022-10-19T04:38:36.638Z,7.67
2022-10-19T04:41:08.464Z,7.72
2022-10-19T04:43:35.596Z,7.68
2022-10-19T04:46:07.297Z,7.80
2022-10-19T04:48:35.702Z,7.10
2022-10-19T04:51:02.956Z,7.13
2022-10-19T04:53:29.758Z,6.55
2022-10-19T04:55:56.916Z,6.80
2022-10-19T04:58:24.054Z,7.03
2022-10-19T05:00:51.402Z,7.40
2022-10-19T05:03:18.193Z,7.28
2022-10-19T05:05:44.963Z,7.47
2022-10-19T05:08:11.756Z,7.60
2022-10-19T05:10:38.853Z,7.50
2022-10-19T05:13:05.690Z,7.32
2022-10-19T05:15:32.478Z,7.10
2022-10-19T05:17:59.406Z,7.60
2022-10-19T05:20:27.196Z,7.75
2022-10-19T05:22:53.916Z,7.30
2022-10-19T05:25:20.708Z,7.40
2022-10-19T05:27:54.180Z,7.68
2022-10-19T05:30:24.260Z,7.47
2022-10-19T05:32:51.027Z,8.00
2022-10-19T05:35:21.510Z,7.50
2022-10-19T05:37:53.544Z,7.93
2022-10-19T05:40:20.248Z,6.90
2022-10-19T05:42:47.017Z,7.15
2022-10-19T05:45:13.725Z,6.80
2022-10-19T05:47:40.452Z,6.80
2022-10-19T05:50:07.441Z,7.10
2022-10-19T05:52:34.209Z,6.57
2022-10-19T05:55:00.917Z,7.30
2022-10-19T05:57:27.646Z,7.22
2022-10-19T05:59:56.674Z,7.40
2022-10-19T06:02:23.688Z,6.80
2022-10-19T06:04:50.434Z,6.95
2022-10-19T06:07:17.170Z,7.40
2022-10-19T06:09:43.999Z,7.80
2022-10-19T06:12:10.733Z,6.80
2022-10-19T06:14:37.536Z,7.10
2022-10-19T06:17:04.321Z,7.25
2022-10-19T06:19:31.017Z,7.90
2022-10-19T06:21:57.809Z,6.80
2022-10-19T06:24:24.578Z,6.93
2022-10-19T06:26:51.398Z,7.32
2022-10-19T06:29:18.124Z,7.13
2022-10-19T06:31:46.357Z,7.10
2022-10-19T06:34:13.277Z,7.20
2022-10-19T06:36:40.144Z,6.40
2022-10-19T06:39:06.895Z,6.80
2022-10-19T06:41:34.617Z,6.00
2022-10-19T06:44:01.433Z,6.72
2022-10-19T06:46:28.414Z,7.70
2022-10-19T06:49:01.054Z,7.32
2022-10-19T06:51:29.473Z,7.00
2022-10-19T06:53:57.493Z,7.63
2022-10-19T06:56:26.120Z,7.40
2022-10-19T06:58:53.812Z,6.60
2022-10-19T07:01:20.786Z,7.22
2022-10-19T07:03:47.558Z,7.57
2022-10-19T07:06:14.577Z,7.47
2022-10-19T07:08:42.586Z,6.50
2022-10-19T07:11:12.328Z,6.15
2022-10-19T07:13:39.187Z,6.88
2022-10-19T07:16:15.919Z,6.80
2022-10-19T07:18:47.377Z,6.60
2022-10-19T07:21:15.789Z,7.30
2022-10-19T07:23:43.915Z,6.80
2022-10-19T07:26:23.713Z,6.80
2022-10-19T07:28:51.194Z,6.82
2022-10-19T07:31:21.988Z,6.70
2022-10-19T07:33:56.998Z,6.57
2022-10-19T07:36:24.713Z,6.60
2022-10-19T07:38:52.293Z,6.70
2022-10-19T07:41:23.053Z,6.75
2022-10-19T07:43:51.120Z,6.53
2022-10-19T07:46:23.437Z,6.70
2022-10-19T07:48:50.205Z,7.22
2022-10-19T07:51:18.513Z,7.20
2022-10-19T07:53:46.171Z,6.90
2022-10-19T07:56:16.086Z,6.78
2022-10-19T07:58:43.131Z,6.70
2022-10-19T08:01:18.972Z,7.25
2022-10-19T08:06:33.583Z,7.50
2022-10-19T08:09:00.816Z,6.70
2022-10-19T08:11:33.273Z,6.40
2022-10-19T08:14:03.186Z,6.80
2022-10-19T08:16:39.398Z,6.53
2022-10-19T08:19:09.691Z,6.47
2022-10-19T08:21:38.169Z,6.60
2022-10-19T08:24:06.033Z,6.80
2022-10-19T08:26:34.512Z,7.07
2022-10-19T08:29:06.375Z,7.00
2022-10-19T08:31:33.210Z,6.80
2022-10-19T08:34:00.266Z,7.35
2022-10-19T08:36:28.331Z,6.70
2022-10-19T08:38:55.069Z,6.88
2022-10-19T08:41:26.553Z,6.88
2022-10-19T08:44:15.744Z,6.53
2022-10-19T08:47:07.761Z,7.30
2022-10-19T08:49:34.982Z,6.72
2022-10-19T08:52:12.288Z,7.00
2022-10-19T08:54:54.932Z,7.55
2022-10-19T08:57:50.728Z,7.70
2022-10-19T09:00:54.660Z,7.10
2022-10-19T09:03:54.496Z,6.47
2022-10-19T09:06:49.208Z,7.18
2022-10-19T09:09:18.465Z,6.68
2022-10-19T09:11:49.105Z,6.75
2022-10-19T09:14:21.878Z,6.90
2022-10-19T09:16:48.783Z,6.97
2022-10-19T09:19:25.532Z,7.13
2022-10-19T09:21:57.268Z,7.30
2022-10-19T09:24:35.718Z,7.43
2022-10-19T09:27:02.969Z,7.07
2022-10-19T09:29:29.680Z,7.20
2022-10-19T09:32:00.179Z,7.18
2022-10-19T09:34:33.657Z,7.22
2022-10-19T09:37:00.961Z,8.00
2022-10-19T09:39:30.645Z,7.90
2022-10-19T09:42:13.149Z,7.47
2022-10-19T09:44:40.010Z,7.45
2022-10-19T09:47:32.570Z,7.80
2022-10-19T09:50:24.311Z,7.63
2022-10-19T09:52:57.150Z,6.80
2022-10-19T09:55:44.025Z,7.20
2022-10-19T09:58:13.704Z,7.60
2022-10-19T10:00:52.267Z,7.47
2022-10-19T10:03:43.507Z,8.13
2022-10-19T10:06:15.519Z,7.30
2022-10-19T10:08:48.571Z,6.85
2022-10-19T10:11:23.905Z,7.13
2022-10-19T10:13:53.505Z,6.97
2022-10-19T10:16:29.243Z,7.75
2022-10-19T10:18:59.120Z,7.50
2022-10-19T10:21:37.150Z,7.63
2022-10-19T10:24:18.541Z,7.93
2022-10-19T10:26:52.235Z,8.60
2022-10-19T10:29:21.604Z,7.70
2022-10-19T10:32:12.935Z,7.93
2022-10-19T10:34:51.321Z,8.38
2022-10-19T10:37:36.568Z,8.18
2022-10-19T10:40:05.428Z,8.60
2022-10-19T10:42:52.102Z,7.82
2022-10-19T10:45:49.548Z,8.50
2022-10-19T10:48:53.381Z,8.43
2022-10-19T10:51:32.402Z,8.07
2022-10-19T10:54:22.653Z,8.25
2022-10-19T10:57:15.745Z,8.48
2022-10-19T11:00:26.642Z,9.02
2022-10-19T11:02:57.003Z,8.32
2022-10-19T11:05:33.425Z,8.85
2022-10-19T11:08:12.301Z,8.90
2022-10-19T11:11:19.648Z,9.48
2022-10-19T11:13:53.873Z,9.20
2022-10-19T11:16:41.981Z,9.10
2022-10-19T11:19:22.288Z,9.00
2022-10-19T11:21:57.589Z,8.60
2022-10-19T11:24:46.336Z,8.20
2022-10-19T11:27:28.496Z,8.38
2022-10-19T11:30:29.486Z,8.50
2022-10-19T11:33:05.117Z,9.00
2022-10-19T11:35:54.432Z,7.85
2022-10-19T11:38:49.531Z,8.43
2022-10-19T11:41:26.897Z,8.45
2022-10-19T11:44:16.534Z,8.50
2022-10-19T11:46:55.582Z,8.27
2022-10-19T11:49:47.137Z,8.13
2022-10-19T11:52:28.904Z,8.85
2022-10-19T11:55:32.597Z,8.20
2022-10-19T11:58:16.181Z,8.60
2022-10-19T12:00:52.601Z,8.93
2022-10-19T12:04:03.852Z,9.60
2022-10-19T12:06:48.555Z,9.40
2022-10-19T12:09:21.340Z,8.95
2022-10-19T12:11:54.288Z,9.40
2022-10-19T12:14:27.921Z,9.50
2022-10-19T12:16:59.983Z,9.68
2022-10-19T12:19:36.448Z,9.98
2022-10-19T12:22:05.635Z,9.40
2022-10-19T12:24:34.413Z,9.90
2022-10-19T12:27:01.667Z,10.00
2022-10-19T12:29:41.120Z,11.55
2022-10-19T12:32:12.586Z,10.30
2022-10-19T12:34:59.174Z,10.50
2022-10-19T12:37:34.834Z,9.77
2022-10-19T12:40:38.513Z,10.85
2022-10-19T12:43:20.958Z,10.88
2022-10-19T12:46:07.637Z,11.15
2022-10-19T12:48:36.415Z,11.40
2022-10-19T12:51:12.432Z,10.77
2022-10-19T12:53:44.377Z,11.57
2022-10-19T12:56:13.356Z,11.27
2022-10-19T12:58:47.670Z,11.20
2022-10-19T13:01:20.998Z,10.95
2022-10-19T13:03:51.191Z,11.02
2022-10-19T13:06:24.076Z,11.65
2022-10-19T13:08:53.687Z,11.27
2022-10-19T13:11:21.775Z,11.45
2022-10-19T13:13:56.847Z,10.80
2022-10-19T13:16:29.542Z,11.52
2022-10-19T13:19:14.401Z,11.38
2022-10-19T13:21:54.388Z,12.27
2022-10-19T13:24:24.216Z,12.13
2022-10-19T13:27:02.851Z,12.63
2022-10-19T13:29:39.231Z,12.07
2022-10-19T13:32:43.421Z,12.38
2022-10-19T13:35:26.658Z,11.60
2022-10-19T13:38:15.370Z,11.60
2022-10-19T13:40:48.216Z,11.68
2022-10-19T13:43:19.739Z,12.80
2022-10-19T13:46:30.810Z,12.67
2022-10-19T13:49:32.666Z,12.60
2022-10-19T13:52:18.544Z,13.93
2022-10-19T13:54:51.245Z,12.82
2022-10-19T13:57:22.503Z,12.48
2022-10-19T14:00:04.377Z,12.68
2022-10-19T14:02:46.337Z,12.75
2022-10-19T14:05:44.545Z,11.90
2022-10-19T14:08:20.126Z,12.65
2022-10-19T14:11:00.944Z,13.80
2022-10-19T14:13:28.712Z,13.20
2022-10-19T14:15:57.807Z,13.02
2022-10-19T14:18:34.406Z,13.75
2022-10-19T14:21:06.447Z,12.83
2022-10-19T14:23:35.617Z,13.63
2022-10-19T14:26:12.069Z,13.10
2022-10-19T14:28:40.545Z,14.18
2022-10-19T14:31:10.156Z,14.50
2022-10-19T14:33:40.656Z,13.93
2022-10-19T14:36:14.758Z,13.87
2022-10-19T14:38:45.482Z,13.18
2022-10-19T14:41:28.877Z,14.20
2022-10-19T14:43:59.972Z,13.35
2022-10-19T14:46:30.854Z,14.95
2022-10-19T14:49:03.910Z,15.00
2022-10-19T14:51:42.233Z,14.50
2022-10-19T14:54:43.026Z,14.68
2022-10-19T14:57:18.007Z,14.38
2022-10-19T14:59:49.944Z,14.20
2022-10-19T15:02:46.096Z,14.07
2022-10-19T15:05:23.679Z,13.50
2022-10-19T15:07:51.125Z,13.77
2022-10-19T15:10:22.883Z,13.55
2022-10-19T15:12:51.521Z,13.60
2022-10-19T15:15:28.055Z,12.55
2022-10-19T15:17:56.354Z,12.77
2022-10-19T15:20:27.363Z,13.63
2022-10-19T15:22:55.238Z,14.30
2022-10-19T15:25:33.857Z,12.88
2022-10-19T15:28:41.711Z,12.70
2022-10-19T15:31:16.268Z,13.30
2022-10-19T15:33:55.959Z,13.65
2022-10-19T15:36:24.284Z,13.20
2022-10-19T15:39:11.854Z,13.10
2022-10-19T15:41:49.055Z,12.45
2022-10-19T15:44:39.823Z,11.95
2022-10-19T15:47:15.615Z,10.80
2022-10-19T15:49:42.585Z,11.18
2022-10-19T15:52:20.443Z,11.00
2022-10-19T15:54:48.457Z,10.93
2022-10-19T15:57:34.291Z,11.75
2022-10-19T16:00:08.328Z,11.38
2022-10-19T16:02:35.475Z,11.45
2022-10-19T16:05:02.384Z,10.20
2022-10-19T16:07:31.963Z,10.10
2022-10-19T16:09:59.185Z,9.82
2022-10-19T16:12:26.929Z,9.98
2022-10-19T16:14:54.711Z,10.30
2022-10-19T16:17:21.577Z,9.32
2022-10-19T16:19:48.784Z,9.90
2022-10-19T16:22:16.517Z,9.50
2022-10-19T16:24:43.506Z,9.15
2022-10-19T16:27:14.950Z,8.63
2022-10-19T16:29:43.496Z,9.00
2022-10-19T16:32:10.400Z,9.15
2022-10-19T16:34:37.964Z,8.43
2022-10-19T16:37:06.907Z,7.90
2022-10-19T16:39:35.010Z,8.90
2022-10-19T16:42:01.877Z,8.27
2022-10-19T16:44:28.648Z,7.90
2022-10-19T16:46:59.280Z,8.50
2022-10-19T16:49:28.780Z,7.65
2022-10-19T16:51:57.428Z,7.10
2022-10-19T16:54:26.665Z,7.00
2022-10-19T16:56:55.490Z,6.40
2022-10-19T16:59:22.376Z,6.72
2022-10-19T17:01:49.427Z,7.30
2022-10-19T17:04:17.955Z,6.13
2022-10-19T17:06:45.067Z,6.20
2022-10-19T17:11:58.984Z,7.90
2022-10-19T17:14:25.905Z,8.20
2022-10-19T17:16:52.836Z,7.70
2022-10-19T17:19:19.639Z,7.40
2022-10-19T17:21:47.001Z,7.20
2022-10-19T17:24:21.674Z,7.10
2022-10-19T17:26:51.176Z,6.63
2022-10-19T17:29:18.941Z,7.20
2022-10-19T17:31:46.555Z,7.10
2022-10-19T17:34:13.494Z,7.65
2022-10-19T17:36:46.323Z,7.25
2022-10-19T17:39:25.634Z,7.40
2022-10-19T17:42:01.140Z,9.43
2022-10-19T17:44:29.964Z,8.70
2022-10-19T17:46:56.861Z,9.80
2022-10-19T17:49:23.672Z,9.30
2022-10-19T17:51:52.668Z,8.93
2022-10-19T17:54:19.521Z,11.40
2022-10-19T17:56:46.356Z,8.80
2022-10-19T17:59:13.596Z,10.07
2022-10-19T18:01:40.869Z,9.57
2022-10-19T18:04:07.781Z,8.90
2022-10-19T18:06:36.613Z,8.80
2022-10-19T18:09:06.294Z,8.10
2022-10-19T18:11:37.179Z,8.45
2022-10-19T18:14:04.581Z,8.75
2022-10-19T18:16:37.658Z,8.80
2022-10-19T18:19:05.985Z,12.30
2022-10-19T18:21:40.969Z,12.23
2022-10-19T18:24:15.692Z,11.20
2022-10-19T18:26:43.168Z,12.05
2022-10-19T18:29:20.936Z,11.47
2022-10-19T18:31:54.944Z,11.30
2022-10-19T18:34:24.610Z,10.50
2022-10-19T18:36:52.271Z,9.50
2022-10-19T18:39:19.287Z,9.67
2022-10-19T18:41:48.203Z,9.70
2022-10-19T18:44:15.017Z,8.80
2022-10-19T18:46:41.808Z,8.00
2022-10-19T18:49:10.446Z,7.93
2022-10-19T18:51:37.317Z,7.47
2022-10-19T18:54:04.479Z,6.60
2022-10-19T18:56:33.309Z,7.70
2022-10-19T18:59:00.308Z,7.25
2022-10-19T19:01:28.618Z,7.20
2022-10-19T19:03:57.739Z,6.75
2022-10-19T19:06:30.030Z,7.60
2022-10-19T19:08:58.132Z,7.40
2022-10-19T19:11:35.852Z,7.35
2022-10-19T19:14:15.601Z,9.00
2022-10-19T19:16:45.019Z,9.52
2022-10-19T19:19:13.677Z,10.38
2022-10-19T19:21:43.677Z,12.82
2022-10-19T19:24:13.853Z,14.93
2022-10-19T19:26:43.564Z,9.77
2022-10-19T19:29:10.534Z,9.30
2022-10-19T19:31:37.427Z,9.20
2022-10-19T19:34:06.257Z,9.70
2022-10-19T19:36:33.169Z,9.48
2022-10-19T19:39:00.090Z,8.20
2022-10-19T19:41:28.779Z,8.90
2022-10-19T19:43:57.521Z,8.50
2022-10-19T19:46:24.519Z,8.80
2022-10-19T19:48:51.297Z,8.65
2022-10-19T19:51:20.409Z,9.10
2022-10-19T19:53:48.401Z,8.35
2022-10-19T19:56:16.462Z,9.02
2022-10-19T19:58:45.112Z,10.13
2022-10-19T20:01:19.955Z,9.90
2022-10-19T20:03:47.653Z,9.80
2022-10-19T20:06:17.252Z,9.70
2022-10-19T20:08:45.588Z,8.70
2022-10-19T20:11:14.208Z,8.80
2022-10-19T20:13:40.989Z,8.80
2022-10-19T20:16:13.083Z,8.90
2022-10-19T20:18:41.212Z,7.60
2022-10-19T20:21:08.011Z,8.10
2022-10-19T20:23:34.821Z,8.20
2022-10-19T20:26:01.893Z,7.88
2022-10-19T20:28:31.466Z,8.07
2022-10-19T20:31:06.948Z,8.10
2022-10-19T20:33:35.733Z,8.50
2022-10-19T20:36:08.021Z,7.77
2022-10-19T20:38:36.392Z,8.20
2022-10-19T20:41:07.804Z,8.20
2022-10-19T20:43:36.866Z,8.18
2022-10-19T20:46:04.644Z,7.97
2022-10-19T20:48:32.088Z,7.50
2022-10-19T20:51:15.061Z,8.50
2022-10-19T20:53:43.568Z,7.95
2022-10-19T20:56:11.185Z,8.48
2022-10-19T20:58:43.376Z,7.65
2022-10-19T21:01:15.514Z,7.45
2022-10-19T21:03:47.213Z,7.65
2022-10-19T21:06:14.564Z,7.63
2022-10-19T21:08:41.691Z,8.20
2022-10-19T21:11:19.301Z,7.40
2022-10-19T21:13:46.929Z,7.72
2022-10-19T21:16:18.549Z,8.80
2022-10-19T21:18:46.775Z,7.90
2022-10-19T21:21:22.116Z,8.23
2022-10-19T21:23:53.553Z,9.52
2022-10-19T21:26:20.737Z,9.18
2022-10-19T21:28:49.842Z,9.80
2022-10-19T21:31:17.674Z,8.70
2022-10-19T21:33:45.117Z,9.03
2022-10-19T21:36:13.658Z,8.40
2022-10-19T21:38:41.688Z,9.20
2022-10-19T21:41:20.799Z,8.40
2022-10-19T21:43:50.649Z,8.30
2022-10-19T21:46:20.537Z,8.20
2022-10-19T21:48:47.802Z,7.63
2022-10-19T21:51:37.395Z,9.07
2022-10-19T21:54:07.436Z,7.50
2022-10-19T21:56:34.572Z,7.95
2022-10-19T21:59:01.456Z,7.47
2022-10-19T22:01:29.711Z,8.05
2022-10-19T22:03:57.526Z,7.72
2022-10-19T22:06:25.428Z,7.50
2022-10-19T22:08:52.727Z,7.53
2022-10-19T22:11:20.217Z,7.70
2022-10-19T22:13:47.148Z,7.90
2022-10-19T22:16:19.664Z,7.40
2022-10-19T22:18:47.859Z,8.38
2022-10-19T22:21:18.390Z,8.15
2022-10-19T22:23:45.176Z,8.48
2022-10-19T22:26:17.719Z,7.80
2022-10-19T22:28:44.971Z,7.70
2022-10-19T22:31:12.364Z,8.50
2022-10-19T22:33:39.400Z,7.60
2022-10-19T22:36:08.696Z,8.00
2022-10-19T22:38:35.957Z,8.43
2022-10-19T22:41:02.915Z,8.40
2022-10-19T22:43:29.660Z,8.10
2022-10-19T22:45:56.432Z,8.30
2022-10-19T22:48:23.181Z,8.40
2022-10-19T22:50:54.250Z,8.90
2022-10-19T22:53:22.376Z,9.40
2022-10-19T22:55:49.555Z,8.50
2022-10-19T22:58:17.322Z,8.60
2022-10-19T23:00:44.117Z,9.00
2022-10-19T23:03:10.928Z,8.90
2022-10-19T23:05:37.742Z,8.48
2022-10-19T23:08:04.757Z,9.38
2022-10-19T23:10:32.640Z,8.82
2022-10-19T23:12:59.605Z,9.40
2022-10-19T23:15:26.600Z,9.35
2022-10-19T23:17:53.482Z,9.50
2022-10-19T23:20:20.264Z,9.20
2022-10-19T23:22:47.057Z,9.60
2022-10-19T23:25:13.780Z,9.73
2022-10-19T23:27:40.471Z,9.40
2022-10-19T23:30:07.727Z,8.60
2022-10-19T23:32:34.460Z,8.88
2022-10-19T23:35:02.001Z,9.32
2022-10-19T23:37:28.705Z,8.98
2022-10-19T23:39:55.624Z,7.77
2022-10-19T23:42:22.325Z,8.00
2022-10-19T23:44:49.236Z,8.40
2022-10-19T23:47:16.176Z,8.85
2022-10-19T23:49:42.981Z,7.70
2022-10-19T23:52:09.789Z,8.38
2022-10-19T23:54:36.517Z,8.30
2022-10-19T23:57:03.353Z,7.53
2022-10-19T23:59:30.313Z,7.72
